createdAt,value
2019-02-18T00:01:22.160Z,3.45
2019-02-18T00:03:50.665Z,3.44
2019-02-18T00:06:19.979Z,3.86
2019-02-18T00:08:48.493Z,3.49
2019-02-18T00:11:17.810Z,3.41
2019-02-18T00:13:47.110Z,3.50
2019-02-18T00:16:16.443Z,3.69
2019-02-18T00:18:45.845Z,3.67
2019-02-18T00:21:14.359Z,3.62
2019-02-18T00:23:42.782Z,3.78
2019-02-18T00:26:12.097Z,3.70
2019-02-18T00:28:41.418Z,3.39
2019-02-18T00:31:10.761Z,3.58
2019-02-18T00:33:39.337Z,3.42
2019-02-18T00:36:08.656Z,3.20
2019-02-18T00:38:37.959Z,3.19
2019-02-18T00:41:06.589Z,3.01
2019-02-18T00:43:35.090Z,3.45
2019-02-18T00:46:04.425Z,3.66
2019-02-18T00:48:33.746Z,3.85
2019-02-18T00:51:03.182Z,3.95
2019-02-18T00:53:32.507Z,3.71
2019-02-18T00:56:01.815Z,3.96
2019-02-18T00:58:31.114Z,3.95
2019-02-18T01:01:00.506Z,3.26
2019-02-18T01:03:29.902Z,3.00
2019-02-18T01:05:58.433Z,3.11
2019-02-18T01:08:27.161Z,3.36
2019-02-18T01:10:55.665Z,3.06
2019-02-18T01:13:25.012Z,3.00
2019-02-18T01:15:53.494Z,3.36
2019-02-18T01:18:22.797Z,3.16
2019-02-18T01:20:52.128Z,2.85
2019-02-18T01:23:21.561Z,2.87
2019-02-18T01:25:50.887Z,3.21
2019-02-18T01:28:20.223Z,3.41
2019-02-18T01:30:48.746Z,3.30
2019-02-18T01:33:17.366Z,3.51
2019-02-18T01:35:46.671Z,3.41
2019-02-18T01:38:16.014Z,3.36
2019-02-18T01:40:45.366Z,3.39
2019-02-18T01:43:14.684Z,3.36
2019-02-18T01:45:44.001Z,3.40
2019-02-18T01:48:13.309Z,3.35
2019-02-18T01:50:42.651Z,3.39
2019-02-18T01:53:11.068Z,3.19
2019-02-18T01:55:39.671Z,3.10
2019-02-18T01:58:08.986Z,2.71
2019-02-18T02:03:41.021Z,3.18
2019-02-18T02:06:10.395Z,3.32
2019-02-18T02:08:39.706Z,3.01
2019-02-18T02:11:09.016Z,3.26
2019-02-18T02:13:38.336Z,3.51
2019-02-18T02:16:09.724Z,3.13
2019-02-18T02:18:38.299Z,3.04
2019-02-18T02:21:06.803Z,2.87
2019-02-18T02:23:36.211Z,2.83
2019-02-18T02:26:05.520Z,3.02
2019-02-18T02:28:34.090Z,3.09
2019-02-18T02:31:02.743Z,2.71
2019-02-18T02:33:32.130Z,2.82
2019-02-18T02:36:01.462Z,2.50
2019-02-18T02:38:30.778Z,2.64
2019-02-18T02:40:59.323Z,2.69
2019-02-18T02:43:28.708Z,2.66
2019-02-18T02:45:57.285Z,2.77
2019-02-18T02:48:25.802Z,2.44
2019-02-18T02:50:55.114Z,2.18
2019-02-18T02:53:23.602Z,2.64
2019-02-18T02:55:52.927Z,2.76
2019-02-18T02:58:21.545Z,2.67
2019-02-18T03:00:50.860Z,2.78
2019-02-18T03:03:20.170Z,3.20
2019-02-18T03:05:48.585Z,3.48
2019-02-18T03:08:20.562Z,3.11
2019-02-18T03:10:47.624Z,3.21
2019-02-18T03:13:16.163Z,2.71
2019-02-18T03:15:44.666Z,2.49
2019-02-18T03:18:13.997Z,2.53
2019-02-18T03:20:43.312Z,2.82
2019-02-18T03:23:12.621Z,2.49
2019-02-18T03:25:42.791Z,2.54
2019-02-18T03:28:50.103Z,2.41
2019-02-18T03:31:22.546Z,2.59
2019-02-18T03:34:29.847Z,2.61
2019-02-18T03:36:59.160Z,2.60
2019-02-18T03:39:27.689Z,2.53
2019-02-18T03:41:57.000Z,2.22
2019-02-18T03:44:25.572Z,2.37
2019-02-18T03:46:54.945Z,2.51
2019-02-18T03:49:24.260Z,2.34
2019-02-18T03:51:53.571Z,2.24
2019-02-18T03:57:25.059Z,2.36
2019-02-18T03:59:54.380Z,2.42
2019-02-18T04:02:23.805Z,2.56
2019-02-18T04:04:53.126Z,2.57
2019-02-18T04:07:22.444Z,2.34
2019-02-18T04:09:51.772Z,2.11
2019-02-18T04:12:20.296Z,2.20
2019-02-18T04:14:48.851Z,2.27
2019-02-18T04:17:18.176Z,2.32
2019-02-18T04:19:47.486Z,2.32
2019-02-18T04:22:16.816Z,2.29
2019-02-18T04:24:46.151Z,2.46
2019-02-18T04:27:15.473Z,2.58
2019-02-18T04:29:44.792Z,2.61
2019-02-18T04:32:14.121Z,2.45
2019-02-18T04:34:43.450Z,2.20
2019-02-18T04:37:11.973Z,2.33
2019-02-18T04:39:40.491Z,2.30
2019-02-18T04:42:09.815Z,2.29
2019-02-18T04:44:39.115Z,2.24
2019-02-18T04:47:08.419Z,2.15
2019-02-18T04:49:37.750Z,2.12
2019-02-18T04:52:07.203Z,1.99
2019-02-18T04:54:36.514Z,2.15
2019-02-18T04:57:05.037Z,2.33
2019-02-18T04:59:33.492Z,2.43
2019-02-18T05:02:02.874Z,2.29
2019-02-18T05:04:31.486Z,2.35
2019-02-18T05:07:00.794Z,2.04
2019-02-18T05:09:29.321Z,1.98
2019-02-18T05:11:58.629Z,1.87
2019-02-18T05:14:27.940Z,2.21
2019-02-18T05:16:57.283Z,2.24
2019-02-18T05:19:26.603Z,2.32
2019-02-18T05:21:55.111Z,2.20
2019-02-18T05:24:23.637Z,2.14
2019-02-18T05:26:52.990Z,2.22
2019-02-18T05:29:22.308Z,2.35
2019-02-18T05:31:51.642Z,2.03
2019-02-18T05:34:20.961Z,2.28
2019-02-18T05:36:50.282Z,2.52
2019-02-18T05:39:18.808Z,2.25
2019-02-18T05:41:48.131Z,2.32
2019-02-18T05:44:16.650Z,2.36
2019-02-18T05:46:45.963Z,1.89
2019-02-18T05:49:14.482Z,2.09
2019-02-18T05:51:43.796Z,2.11
2019-02-18T05:54:13.118Z,2.09
2019-02-18T05:56:42.431Z,2.27
2019-02-18T05:59:11.757Z,2.41
2019-02-18T06:01:41.072Z,2.73
2019-02-18T06:04:10.398Z,2.88
2019-02-18T06:06:38.933Z,2.95
2019-02-18T06:09:07.537Z,2.73
2019-02-18T06:14:38.206Z,2.76
2019-02-18T06:20:08.927Z,3.18
2019-02-18T06:22:38.629Z,3.11
2019-02-18T06:25:26.655Z,3.17
2019-02-18T06:27:55.991Z,2.90
2019-02-18T06:30:25.314Z,2.87
2019-02-18T06:32:54.657Z,3.10
2019-02-18T06:35:23.977Z,3.23
2019-02-18T06:37:53.304Z,3.41
2019-02-18T06:40:22.634Z,3.58
2019-02-18T06:42:51.952Z,3.66
2019-02-18T06:45:40.797Z,3.58
2019-02-18T06:48:28.786Z,3.64
2019-02-18T06:50:57.344Z,3.75
2019-02-18T06:53:26.665Z,3.83
2019-02-18T06:55:55.980Z,3.81
2019-02-18T06:58:32.543Z,3.86
2019-02-18T07:01:09.201Z,3.91
2019-02-18T07:03:43.279Z,3.99
2019-02-18T07:06:49.850Z,4.28
2019-02-18T07:09:37.869Z,4.41
2019-02-18T07:12:12.060Z,4.48
2019-02-18T07:14:40.664Z,4.54
2019-02-18T07:17:10.567Z,4.59
2019-02-18T07:19:59.214Z,4.65
2019-02-18T07:22:28.557Z,4.83
2019-02-18T07:24:57.875Z,4.85
2019-02-18T07:27:27.229Z,5.04
2019-02-18T07:29:56.579Z,5.09
2019-02-18T07:32:25.890Z,5.16
2019-02-18T07:34:55.197Z,5.27
2019-02-18T07:37:23.718Z,5.48
2019-02-18T07:40:01.036Z,5.62
2019-02-18T07:42:41.462Z,5.71
2019-02-18T07:47:53.505Z,5.97
2019-02-18T07:50:22.009Z,6.12
2019-02-18T07:52:51.319Z,6.24
2019-02-18T07:55:20.635Z,6.39
2019-02-18T07:57:49.974Z,6.50
2019-02-18T08:00:19.310Z,6.73
2019-02-18T08:02:47.968Z,6.97
2019-02-18T08:05:17.315Z,7.25
2019-02-18T08:07:45.838Z,7.43
2019-02-18T08:10:15.184Z,7.53
2019-02-18T08:12:43.702Z,7.68
2019-02-18T08:15:13.022Z,7.74
2019-02-18T08:17:42.427Z,7.87
2019-02-18T08:20:11.779Z,7.99
2019-02-18T08:22:41.114Z,8.15
2019-02-18T08:25:10.574Z,8.26
2019-02-18T08:27:39.224Z,8.39
2019-02-18T08:30:10.151Z,8.59
2019-02-18T08:32:38.710Z,8.77
2019-02-18T08:35:07.209Z,8.91
2019-02-18T08:37:35.771Z,8.78
2019-02-18T08:40:05.491Z,8.96
2019-02-18T08:42:34.835Z,9.21
2019-02-18T08:45:05.546Z,9.14
2019-02-18T08:47:34.270Z,9.37
2019-02-18T08:50:04.177Z,9.57
2019-02-18T08:52:32.711Z,9.75
2019-02-18T08:55:01.251Z,9.84
2019-02-18T08:57:30.550Z,9.99
2019-02-18T08:59:58.960Z,9.97
2019-02-18T09:02:28.318Z,10.07
2019-02-18T09:04:56.861Z,10.25
2019-02-18T09:07:25.374Z,10.34
2019-02-18T09:09:53.897Z,10.50
2019-02-18T09:12:23.250Z,10.41
2019-02-18T09:14:52.584Z,10.57
2019-02-18T09:17:21.924Z,10.59
2019-02-18T09:19:50.439Z,10.75
2019-02-18T09:22:38.456Z,10.76
2019-02-18T09:25:15.307Z,10.96
2019-02-18T09:27:44.632Z,11.04
2019-02-18T09:33:09.915Z,11.03
2019-02-18T09:35:39.250Z,11.11
2019-02-18T09:38:08.569Z,11.15
2019-02-18T09:40:44.691Z,11.25
2019-02-18T09:43:27.133Z,11.38
2019-02-18T09:45:56.472Z,11.36
2019-02-18T09:48:25.803Z,11.41
2019-02-18T09:50:55.155Z,11.44
2019-02-18T09:53:24.477Z,11.63
2019-02-18T09:55:52.924Z,11.64
2019-02-18T09:58:22.285Z,11.68
2019-02-18T10:00:50.832Z,11.95
2019-02-18T10:03:20.173Z,11.81
2019-02-18T10:05:49.510Z,11.95
2019-02-18T10:08:18.843Z,11.91
2019-02-18T10:10:55.376Z,11.92
2019-02-18T10:13:18.646Z,12.03
2019-02-18T10:15:47.976Z,12.14
2019-02-18T10:18:17.326Z,12.22
2019-02-18T10:20:46.657Z,12.26
2019-02-18T10:23:16.001Z,12.36
2019-02-18T10:25:44.661Z,12.39
2019-02-18T10:28:14.005Z,12.50
2019-02-18T10:30:42.573Z,12.60
2019-02-18T10:33:11.905Z,12.67
2019-02-18T10:35:41.347Z,12.68
2019-02-18T10:38:10.680Z,12.80
2019-02-18T10:40:40.028Z,12.74
2019-02-18T10:43:08.640Z,12.70
2019-02-18T10:45:37.108Z,12.81
2019-02-18T10:48:06.438Z,12.90
2019-02-18T10:50:35.951Z,12.85
2019-02-18T10:53:04.485Z,12.71
2019-02-18T10:55:33.828Z,12.76
2019-02-18T10:58:03.175Z,12.87
2019-02-18T11:00:32.590Z,12.98
2019-02-18T11:03:01.967Z,13.07
2019-02-18T11:05:31.294Z,13.09
2019-02-18T11:08:00.727Z,13.13
2019-02-18T11:10:30.061Z,13.26
2019-02-18T11:12:59.415Z,13.34
2019-02-18T11:15:28.146Z,13.40
2019-02-18T11:17:57.457Z,13.47
2019-02-18T11:20:25.990Z,13.41
2019-02-18T11:22:54.517Z,13.27
2019-02-18T11:25:23.037Z,13.22
2019-02-18T11:27:51.572Z,13.15
2019-02-18T11:30:20.410Z,13.22
2019-02-18T11:32:48.942Z,13.32
2019-02-18T11:35:17.402Z,13.77
2019-02-18T11:37:46.710Z,13.72
2019-02-18T11:40:16.037Z,13.93
2019-02-18T11:42:44.577Z,14.11
2019-02-18T11:45:14.036Z,14.26
2019-02-18T11:47:43.406Z,14.30
2019-02-18T11:50:12.993Z,14.38
2019-02-18T11:52:42.334Z,14.26
2019-02-18T11:55:11.736Z,14.32
2019-02-18T11:57:40.342Z,14.57
2019-02-18T12:00:10.388Z,14.59
2019-02-18T12:02:39.044Z,14.38
2019-02-18T12:05:09.174Z,14.40
2019-02-18T12:07:37.709Z,14.42
2019-02-18T12:10:08.023Z,14.59
2019-02-18T12:12:36.866Z,14.52
2019-02-18T12:15:07.678Z,14.20
2019-02-18T12:17:36.427Z,14.06
2019-02-18T12:20:07.844Z,14.13
2019-02-18T12:22:36.458Z,14.15
2019-02-18T12:25:06.034Z,14.00
2019-02-18T12:27:35.367Z,13.95
2019-02-18T12:30:05.826Z,14.42
2019-02-18T12:32:35.161Z,14.52
2019-02-18T12:35:04.882Z,14.49
2019-02-18T12:37:33.577Z,14.48
2019-02-18T12:40:02.116Z,14.44
2019-02-18T12:42:31.440Z,15.30
2019-02-18T12:45:00.876Z,14.68
2019-02-18T12:47:30.203Z,14.66
2019-02-18T12:49:59.533Z,14.67
2019-02-18T12:52:28.861Z,14.73
2019-02-18T12:55:00.364Z,14.49
2019-02-18T12:57:47.395Z,14.50
2019-02-18T13:00:17.001Z,14.51
2019-02-18T13:02:46.464Z,14.47
2019-02-18T13:05:15.404Z,14.51
2019-02-18T13:07:44.818Z,14.68
2019-02-18T13:10:13.386Z,14.69
2019-02-18T13:13:02.593Z,14.57
2019-02-18T13:15:31.930Z,14.55
2019-02-18T13:20:31.714Z,14.45
2019-02-18T13:23:01.046Z,14.44
2019-02-18T13:25:50.373Z,14.57
2019-02-18T13:28:19.678Z,14.45
2019-02-18T13:30:49.025Z,14.58
2019-02-18T13:33:18.351Z,14.58
2019-02-18T13:35:46.870Z,14.75
2019-02-18T13:38:15.591Z,14.90
2019-02-18T13:40:45.032Z,14.97
2019-02-18T13:43:14.391Z,14.83
2019-02-18T13:45:43.748Z,14.68
2019-02-18T13:48:13.122Z,14.48
2019-02-18T13:50:42.451Z,14.35
2019-02-18T13:53:11.785Z,14.43
2019-02-18T13:55:40.538Z,14.42
2019-02-18T13:58:09.987Z,14.47
2019-02-18T14:00:38.513Z,14.50
2019-02-18T14:03:07.997Z,14.47
2019-02-18T14:05:37.325Z,14.45
2019-02-18T14:08:06.737Z,14.62
2019-02-18T14:10:36.060Z,14.51
2019-02-18T14:13:05.525Z,14.45
2019-02-18T14:15:34.943Z,14.63
2019-02-18T14:18:04.296Z,14.53
2019-02-18T14:20:32.801Z,14.39
2019-02-18T14:23:02.136Z,14.46
2019-02-18T14:25:31.446Z,14.43
2019-02-18T14:28:00.763Z,14.32
2019-02-18T14:30:29.597Z,14.44
2019-02-18T14:32:58.935Z,14.51
2019-02-18T14:35:28.271Z,14.54
2019-02-18T14:37:57.594Z,14.60
2019-02-18T14:40:27.322Z,14.46
2019-02-18T14:42:56.666Z,14.40
2019-02-18T14:45:26.115Z,14.29
2019-02-18T14:47:55.426Z,14.18
2019-02-18T14:50:24.949Z,14.10
2019-02-18T14:52:54.397Z,14.04
2019-02-18T14:55:23.806Z,14.07
2019-02-18T14:57:52.534Z,14.17
2019-02-18T15:00:22.925Z,14.26
2019-02-18T15:02:53.152Z,14.33
2019-02-18T15:05:42.859Z,14.22
2019-02-18T15:08:12.202Z,14.13
2019-02-18T15:10:41.535Z,14.05
2019-02-18T15:13:10.898Z,13.93
2019-02-18T15:15:39.710Z,13.82
2019-02-18T15:18:09.021Z,13.79
2019-02-18T15:20:38.017Z,13.70
2019-02-18T15:23:07.370Z,13.62
2019-02-18T15:25:36.695Z,13.56
2019-02-18T15:28:06.121Z,13.50
2019-02-18T15:30:35.495Z,13.44
2019-02-18T15:33:04.039Z,13.41
2019-02-18T15:35:33.457Z,13.34
2019-02-18T15:38:02.073Z,13.26
2019-02-18T15:40:31.394Z,13.23
2019-02-18T15:43:00.728Z,13.09
2019-02-18T15:45:30.070Z,13.08
2019-02-18T15:48:01.770Z,13.07
2019-02-18T15:50:48.640Z,13.04
2019-02-18T15:53:17.309Z,12.94
2019-02-18T15:55:46.695Z,12.85
2019-02-18T15:58:36.041Z,12.75
2019-02-18T16:04:07.377Z,12.66
2019-02-18T16:06:38.661Z,12.56
2019-02-18T16:09:08.177Z,12.57
2019-02-18T16:11:36.815Z,12.50
2019-02-18T16:14:06.137Z,12.39
2019-02-18T16:16:55.390Z,12.38
2019-02-18T16:19:24.741Z,12.27
2019-02-18T16:21:54.070Z,12.15
2019-02-18T16:24:23.378Z,12.02
2019-02-18T16:26:52.696Z,12.00
2019-02-18T16:29:22.065Z,11.98
2019-02-18T16:31:51.405Z,11.93
2019-02-18T16:34:19.989Z,11.79
2019-02-18T16:36:49.340Z,11.76
2019-02-18T16:39:17.905Z,11.73
2019-02-18T16:41:47.246Z,11.79
2019-02-18T16:44:16.561Z,11.77
2019-02-18T16:46:45.888Z,11.73
2019-02-18T16:49:35.282Z,11.73
2019-02-18T16:52:04.094Z,11.61
2019-02-18T16:54:33.425Z,11.41
2019-02-18T16:57:02.763Z,11.57
2019-02-18T16:59:32.093Z,11.49
2019-02-18T17:02:00.506Z,11.56
2019-02-18T17:04:29.836Z,11.40
2019-02-18T17:06:59.161Z,11.55
2019-02-18T17:09:28.507Z,11.37
2019-02-18T17:11:57.038Z,11.36
2019-02-18T17:14:26.373Z,11.39
2019-02-18T17:16:55.725Z,11.29
2019-02-18T17:19:25.146Z,11.31
2019-02-18T17:21:54.483Z,11.24
2019-02-18T17:24:43.723Z,10.95
2019-02-18T17:27:13.068Z,10.70
2019-02-18T17:29:42.413Z,10.95
2019-02-18T17:32:10.952Z,10.82
2019-02-18T17:34:39.790Z,10.95
2019-02-18T17:37:09.117Z,10.92
2019-02-18T17:39:38.456Z,10.92
2019-02-18T17:42:07.800Z,10.84
2019-02-18T17:44:37.143Z,10.62
2019-02-18T17:47:06.469Z,10.22
2019-02-18T17:49:55.703Z,10.42
2019-02-18T17:52:25.158Z,10.52
2019-02-18T17:54:54.490Z,10.47
2019-02-18T17:57:23.178Z,10.26
2019-02-18T17:59:52.519Z,10.54
2019-02-18T18:02:21.930Z,10.41
2019-02-18T18:04:51.361Z,10.33
2019-02-18T18:07:20.832Z,9.82
2019-02-18T18:09:50.176Z,9.69
2019-02-18T18:12:19.575Z,10.04
2019-02-18T18:14:48.923Z,10.23
2019-02-18T18:17:17.456Z,10.16
2019-02-18T18:19:46.780Z,9.87
2019-02-18T18:22:15.907Z,9.72
2019-02-18T18:24:45.241Z,9.87
2019-02-18T18:27:14.562Z,9.82
2019-02-18T18:29:43.919Z,9.51
2019-02-18T18:32:13.253Z,9.45
2019-02-18T18:34:42.608Z,9.51
2019-02-18T18:37:11.930Z,9.10
2019-02-18T18:39:41.253Z,9.00
2019-02-18T18:42:10.629Z,9.36
2019-02-18T18:44:39.961Z,8.97
2019-02-18T18:47:09.344Z,9.15
2019-02-18T18:49:38.674Z,8.83
2019-02-18T18:52:07.206Z,8.94
2019-02-18T18:54:35.640Z,9.00
2019-02-18T18:57:04.993Z,9.02
2019-02-18T18:59:54.226Z,9.09
2019-02-18T19:02:23.560Z,8.79
2019-02-18T19:04:53.915Z,8.59
2019-02-18T19:07:23.456Z,8.56
2019-02-18T19:13:15.789Z,8.16
2019-02-18T19:15:49.634Z,8.41
2019-02-18T19:18:34.431Z,8.15
2019-02-18T19:21:03.778Z,8.44
2019-02-18T19:23:33.815Z,8.22
2019-02-18T19:26:02.413Z,8.05
2019-02-18T19:28:32.418Z,7.98
2019-02-18T19:31:01.329Z,8.06
2019-02-18T19:33:30.057Z,7.75
2019-02-18T19:35:59.388Z,7.75
2019-02-18T19:38:28.708Z,7.97
2019-02-18T19:40:58.110Z,7.94
2019-02-18T19:43:27.460Z,8.01
2019-02-18T19:45:56.783Z,8.06
2019-02-18T19:48:26.119Z,8.13
2019-02-18T19:50:55.451Z,7.62
2019-02-18T19:53:44.679Z,7.75
2019-02-18T19:56:13.996Z,7.85
2019-02-18T19:58:42.521Z,7.88
2019-02-18T20:01:11.049Z,7.72
2019-02-18T20:03:39.873Z,7.28
2019-02-18T20:06:09.202Z,7.37
2019-02-18T20:08:38.528Z,7.57
2019-02-18T20:11:19.795Z,7.60
2019-02-18T20:13:48.418Z,7.66
2019-02-18T20:16:37.663Z,7.77
2019-02-18T20:19:06.994Z,7.61
2019-02-18T20:21:36.340Z,7.63
2019-02-18T20:24:05.697Z,7.14
2019-02-18T20:26:35.335Z,6.98
2019-02-18T20:29:04.692Z,6.82
2019-02-18T20:31:33.230Z,7.36
2019-02-18T20:34:02.557Z,7.44
2019-02-18T20:36:31.941Z,7.33
2019-02-18T20:39:01.279Z,6.98
2019-02-18T20:41:30.939Z,7.04
2019-02-18T20:44:07.354Z,6.83
2019-02-18T20:46:49.494Z,7.09
2019-02-18T20:49:18.827Z,7.22
2019-02-18T20:52:08.143Z,7.07
2019-02-18T20:54:36.770Z,6.91
2019-02-18T20:57:05.398Z,6.94
2019-02-18T20:59:33.910Z,6.87
2019-02-18T21:02:03.239Z,7.14
2019-02-18T21:04:32.576Z,6.87
2019-02-18T21:07:01.898Z,6.76
2019-02-18T21:09:31.206Z,6.56
2019-02-18T21:12:00.854Z,6.63
2019-02-18T21:14:30.183Z,6.70
2019-02-18T21:16:59.539Z,6.90
2019-02-18T21:19:28.353Z,6.85
2019-02-18T21:21:57.678Z,6.84
2019-02-18T21:24:26.986Z,6.77
2019-02-18T21:26:55.517Z,6.88
2019-02-18T21:29:24.836Z,7.04
2019-02-18T21:31:54.158Z,6.82
2019-02-18T21:34:23.494Z,6.74
2019-02-18T21:36:52.809Z,6.41
2019-02-18T21:39:22.150Z,6.43
2019-02-18T21:41:51.466Z,6.35
2019-02-18T21:44:25.451Z,6.09
2019-02-18T21:47:10.007Z,6.33
2019-02-18T21:49:38.557Z,6.26
2019-02-18T21:52:07.040Z,5.99
2019-02-18T21:54:36.354Z,6.26
2019-02-18T21:57:05.678Z,6.12
2019-02-18T21:59:54.885Z,6.14
2019-02-18T22:02:24.209Z,6.53
2019-02-18T22:04:53.551Z,6.30
2019-02-18T22:07:22.067Z,6.16
2019-02-18T22:09:51.098Z,6.24
2019-02-18T22:12:19.745Z,6.05
2019-02-18T22:14:48.274Z,6.24
2019-02-18T22:17:17.589Z,6.46
2019-02-18T22:19:46.901Z,5.91
2019-02-18T22:22:16.245Z,6.07
2019-02-18T22:24:45.563Z,5.63
2019-02-18T22:27:15.090Z,5.76
2019-02-18T22:29:44.394Z,5.85
2019-02-18T22:32:13.721Z,5.56
2019-02-18T22:34:43.042Z,5.78
2019-02-18T22:37:12.352Z,5.75
2019-02-18T22:39:40.792Z,5.67
2019-02-18T22:42:29.990Z,5.86
2019-02-18T22:44:59.319Z,5.72
2019-02-18T22:47:28.704Z,5.48
2019-02-18T22:49:58.005Z,5.39
2019-02-18T22:52:27.314Z,5.26
2019-02-18T22:54:56.667Z,5.27
2019-02-18T22:57:25.970Z,5.18
2019-02-18T22:59:54.482Z,5.42
2019-02-18T23:02:23.057Z,5.61
2019-02-18T23:04:52.384Z,5.60
2019-02-18T23:07:21.817Z,5.54
2019-02-18T23:10:11.028Z,5.42
2019-02-18T23:12:40.350Z,5.61
2019-02-18T23:15:09.681Z,5.50
2019-02-18T23:17:39.148Z,5.40
2019-02-18T23:20:08.625Z,4.85
2019-02-18T23:22:37.446Z,5.09
2019-02-18T23:25:05.864Z,5.11
2019-02-18T23:27:34.397Z,4.95
2019-02-18T23:33:06.047Z,5.23
2019-02-18T23:35:34.578Z,5.05
2019-02-18T23:38:04.073Z,4.84
2019-02-18T23:40:33.494Z,5.03
2019-02-18T23:43:02.840Z,5.31
2019-02-18T23:45:32.151Z,5.04
2019-02-18T23:48:01.464Z,4.78
2019-02-18T23:50:30.798Z,4.72
2019-02-18T23:53:00.113Z,4.83
2019-02-18T23:55:28.726Z,4.70
2019-02-18T23:57:58.047Z,4.67
